createdAt,value
2018-09-30T00:01:56.632Z,1.33
2018-09-30T00:04:25.477Z,2.33
2018-09-30T00:06:54.259Z,2.90
2018-09-30T00:09:29.679Z,3.13
2018-09-30T00:11:59.785Z,3.00
2018-09-30T00:14:28.692Z,2.60
2018-09-30T00:16:57.884Z,2.73
2018-09-30T00:19:26.728Z,2.50
2018-09-30T00:21:55.492Z,2.63
2018-09-30T00:24:29.759Z,2.70
2018-09-30T00:27:00.013Z,2.40
2018-09-30T00:29:29.964Z,2.50
2018-09-30T00:31:59.448Z,2.60
2018-09-30T00:34:29.984Z,2.13
2018-09-30T00:36:59.887Z,2.40
2018-09-30T00:39:28.711Z,2.50
2018-09-30T00:41:57.510Z,2.63
2018-09-30T00:44:26.312Z,2.33
2018-09-30T00:46:55.110Z,2.80
2018-09-30T00:49:23.903Z,2.10
2018-09-30T00:51:52.699Z,2.17
2018-09-30T00:54:21.524Z,2.10
2018-09-30T00:56:50.312Z,2.47
2018-09-30T00:59:19.125Z,2.37
2018-09-30T01:01:47.915Z,2.20
2018-09-30T01:04:16.731Z,2.53
2018-09-30T01:06:45.565Z,2.20
2018-09-30T01:09:15.435Z,1.83
2018-09-30T01:11:44.863Z,1.53
2018-09-30T01:14:13.841Z,1.70
2018-09-30T01:16:42.649Z,1.70
2018-09-30T01:19:11.485Z,1.27
2018-09-30T01:21:40.279Z,1.50
2018-09-30T01:24:09.123Z,1.70
2018-09-30T01:26:37.908Z,1.70
2018-09-30T01:29:06.716Z,1.83
2018-09-30T01:31:35.555Z,1.90
2018-09-30T01:34:04.368Z,1.90
2018-09-30T01:36:33.181Z,1.87
2018-09-30T01:39:01.996Z,1.90
2018-09-30T01:41:30.782Z,2.10
2018-09-30T01:43:59.627Z,2.40
2018-09-30T01:46:28.419Z,2.40
2018-09-30T01:48:57.231Z,2.50
2018-09-30T01:51:26.024Z,2.00
2018-09-30T01:53:54.852Z,1.77
2018-09-30T01:56:23.671Z,2.10
2018-09-30T01:58:52.478Z,1.70
2018-09-30T02:01:21.267Z,1.60
2018-09-30T02:03:50.066Z,1.80
2018-09-30T02:06:18.879Z,1.50
2018-09-30T02:08:47.713Z,2.40
2018-09-30T02:11:16.535Z,1.60
2018-09-30T02:13:45.335Z,1.60
2018-09-30T02:16:14.150Z,1.80
2018-09-30T02:18:42.971Z,1.53
2018-09-30T02:21:11.843Z,2.10
2018-09-30T02:23:40.656Z,1.80
2018-09-30T02:26:09.495Z,1.43
2018-09-30T02:28:38.278Z,1.10
2018-09-30T02:31:07.082Z,1.50
2018-09-30T02:33:35.878Z,1.80
2018-09-30T02:36:04.691Z,1.27
2018-09-30T02:38:33.484Z,1.53
2018-09-30T02:41:02.296Z,1.80
2018-09-30T02:43:31.085Z,1.43
2018-09-30T02:45:59.888Z,1.77
2018-09-30T02:48:28.696Z,1.47
2018-09-30T02:50:57.519Z,1.87
2018-09-30T02:53:30.544Z,1.87
2018-09-30T02:55:59.433Z,1.40
2018-09-30T02:58:28.349Z,1.57
2018-09-30T03:00:57.346Z,1.60
2018-09-30T03:03:26.131Z,1.97
2018-09-30T03:05:54.931Z,1.77
2018-09-30T03:08:29.123Z,1.70
2018-09-30T03:10:57.977Z,2.50
2018-09-30T03:13:26.773Z,2.40
2018-09-30T03:15:55.586Z,2.27
2018-09-30T03:18:24.610Z,1.80
2018-09-30T03:20:53.415Z,1.80
2018-09-30T03:23:22.196Z,1.70
2018-09-30T03:25:51.020Z,1.50
2018-09-30T03:28:19.872Z,2.10
2018-09-30T03:30:48.700Z,1.40
2018-09-30T03:33:17.496Z,1.80
2018-09-30T03:35:46.311Z,3.70
2018-09-30T03:38:15.104Z,2.13
2018-09-30T03:40:43.917Z,1.57
2018-09-30T03:43:12.715Z,1.30
2018-09-30T03:45:41.547Z,1.60
2018-09-30T03:48:10.343Z,1.23
2018-09-30T03:50:39.152Z,1.73
2018-09-30T03:53:07.986Z,1.80
2018-09-30T03:55:36.788Z,1.60
2018-09-30T03:58:05.629Z,1.80
2018-09-30T04:00:34.441Z,2.23
2018-09-30T04:03:03.336Z,1.90
2018-09-30T04:05:32.196Z,2.10
2018-09-30T04:08:01.032Z,2.00
2018-09-30T04:10:29.855Z,2.20
2018-09-30T04:12:58.778Z,3.00
2018-09-30T04:15:27.628Z,2.10
2018-09-30T04:17:56.416Z,2.30
2018-09-30T04:20:26.062Z,2.67
2018-09-30T04:22:54.872Z,2.50
2018-09-30T04:25:23.647Z,2.43
2018-09-30T04:27:52.538Z,2.20
2018-09-30T04:30:21.352Z,2.20
2018-09-30T04:32:50.173Z,2.30
2018-09-30T04:35:18.955Z,1.87
2018-09-30T04:37:47.777Z,2.10
2018-09-30T04:40:16.578Z,2.77
2018-09-30T04:42:45.378Z,1.80
2018-09-30T04:45:14.183Z,1.90
2018-09-30T04:47:43.038Z,2.30
2018-09-30T04:50:11.810Z,2.10
2018-09-30T04:52:40.656Z,1.67
2018-09-30T04:55:09.508Z,1.80
2018-09-30T04:57:38.332Z,1.90
2018-09-30T05:00:07.179Z,1.93
2018-09-30T05:02:35.947Z,2.33
2018-09-30T05:05:04.759Z,2.30
2018-09-30T05:07:33.645Z,2.50
2018-09-30T05:10:02.485Z,2.30
2018-09-30T05:12:31.295Z,3.07
2018-09-30T05:15:00.100Z,5.40
2018-09-30T05:17:29.056Z,4.20
2018-09-30T05:19:57.844Z,2.37
2018-09-30T05:22:26.692Z,2.10
2018-09-30T05:24:55.529Z,1.93
2018-09-30T05:27:24.343Z,2.33
2018-09-30T05:29:53.180Z,1.67
2018-09-30T05:32:22.007Z,2.20
2018-09-30T05:34:50.847Z,2.00
2018-09-30T05:37:19.708Z,1.90
2018-09-30T05:39:48.459Z,2.00
2018-09-30T05:42:17.335Z,2.00
2018-09-30T05:44:46.150Z,2.23
2018-09-30T05:47:15.024Z,2.43
2018-09-30T05:49:43.852Z,2.07
2018-09-30T05:52:12.695Z,2.10
2018-09-30T05:54:41.492Z,2.43
2018-09-30T05:57:10.307Z,2.30
2018-09-30T05:59:39.128Z,2.00
2018-09-30T06:02:07.693Z,2.20
2018-09-30T06:04:36.405Z,2.47
2018-09-30T06:07:05.292Z,2.20
2018-09-30T06:09:33.932Z,2.60
2018-09-30T06:12:02.588Z,1.97
2018-09-30T06:14:31.404Z,2.27
2018-09-30T06:17:00.251Z,2.60
2018-09-30T06:19:29.075Z,2.10
2018-09-30T06:21:57.926Z,2.20
2018-09-30T06:24:26.732Z,2.53
2018-09-30T06:26:55.528Z,2.00
2018-09-30T06:29:24.340Z,2.67
2018-09-30T06:31:53.233Z,2.87
2018-09-30T06:34:21.975Z,3.50
2018-09-30T06:36:50.820Z,3.30
2018-09-30T06:39:19.627Z,3.00
2018-09-30T06:41:48.522Z,2.30
2018-09-30T06:44:17.320Z,3.07
2018-09-30T06:46:46.080Z,2.07
2018-09-30T06:49:14.928Z,2.53
2018-09-30T06:51:43.799Z,2.30
2018-09-30T06:54:12.636Z,1.73
2018-09-30T06:56:41.462Z,2.10
2018-09-30T06:59:10.379Z,2.07
2018-09-30T07:01:40.117Z,2.00
2018-09-30T07:04:08.944Z,2.40
2018-09-30T07:06:37.756Z,2.10
2018-09-30T07:09:07.476Z,2.13
2018-09-30T07:11:36.460Z,2.30
2018-09-30T07:14:05.455Z,2.10
2018-09-30T07:16:34.289Z,2.10
2018-09-30T07:19:03.720Z,2.50
2018-09-30T07:21:32.536Z,2.13
2018-09-30T07:24:01.383Z,2.43
2018-09-30T07:26:30.233Z,2.13
2018-09-30T07:28:59.048Z,2.67
2018-09-30T07:31:27.868Z,1.90
2018-09-30T07:33:56.729Z,2.43
2018-09-30T07:36:25.534Z,2.73
2018-09-30T07:38:54.376Z,2.10
2018-09-30T07:41:23.234Z,2.57
2018-09-30T07:43:52.107Z,2.53
2018-09-30T07:46:20.947Z,2.47
2018-09-30T07:48:49.764Z,2.53
2018-09-30T07:51:18.639Z,2.40
2018-09-30T07:53:47.442Z,3.07
2018-09-30T07:56:16.264Z,2.63
2018-09-30T07:58:45.128Z,2.57
2018-09-30T08:01:14.028Z,2.70
2018-09-30T08:03:42.864Z,2.53
2018-09-30T08:06:11.661Z,2.43
2018-09-30T08:08:40.514Z,3.00
2018-09-30T08:11:09.307Z,2.97
2018-09-30T08:13:38.172Z,2.57
2018-09-30T08:16:07.608Z,3.00
2018-09-30T08:18:36.412Z,2.93
2018-09-30T08:21:05.339Z,2.67
2018-09-30T08:23:34.170Z,3.33
2018-09-30T08:26:03.002Z,3.40
2018-09-30T08:28:31.871Z,2.90
2018-09-30T08:31:00.668Z,3.40
2018-09-30T08:33:29.484Z,2.83
2018-09-30T08:36:03.795Z,3.03
2018-09-30T08:38:33.936Z,3.93
2018-09-30T08:41:04.079Z,3.37
2018-09-30T08:43:34.255Z,3.33
2018-09-30T08:46:03.127Z,3.37
2018-09-30T08:48:31.987Z,3.57
2018-09-30T08:51:00.808Z,3.00
2018-09-30T08:53:29.617Z,3.57
2018-09-30T08:55:58.783Z,3.40
2018-09-30T08:58:28.281Z,3.53
2018-09-30T09:00:57.131Z,3.23
2018-09-30T09:03:26.457Z,3.50
2018-09-30T09:05:55.303Z,4.13
2018-09-30T09:08:25.112Z,4.03
2018-09-30T09:10:54.249Z,3.80
2018-09-30T09:13:23.305Z,3.30
2018-09-30T09:15:52.384Z,4.00
2018-09-30T09:18:22.375Z,4.77
2018-09-30T09:20:54.870Z,3.77
2018-09-30T09:23:24.236Z,3.73
2018-09-30T09:25:53.072Z,4.50
2018-09-30T09:28:21.880Z,4.80
2018-09-30T09:30:50.728Z,4.83
2018-09-30T09:33:19.505Z,4.90
2018-09-30T09:35:48.388Z,4.43
2018-09-30T09:38:17.244Z,4.93
2018-09-30T09:40:46.023Z,4.70
2018-09-30T09:43:14.881Z,4.60
2018-09-30T09:45:43.753Z,4.87
2018-09-30T09:48:12.552Z,4.60
2018-09-30T09:50:41.359Z,5.73
2018-09-30T09:53:10.795Z,5.00
2018-09-30T09:55:39.612Z,5.57
2018-09-30T09:58:08.432Z,5.20
2018-09-30T10:00:43.144Z,5.20
2018-09-30T10:03:12.603Z,5.67
2018-09-30T10:05:41.420Z,5.20
2018-09-30T10:08:10.411Z,5.07
2018-09-30T10:10:39.364Z,5.57
2018-09-30T10:13:08.502Z,5.20
2018-09-30T10:15:37.268Z,4.27
2018-09-30T10:18:06.100Z,5.40
2018-09-30T10:20:34.932Z,5.43
2018-09-30T10:23:03.748Z,5.03
2018-09-30T10:25:32.632Z,5.03
2018-09-30T10:28:01.448Z,5.10
2018-09-30T10:30:31.195Z,4.60
2018-09-30T10:33:00.001Z,5.07
2018-09-30T10:35:28.812Z,5.30
2018-09-30T10:37:57.668Z,5.17
2018-09-30T10:40:26.482Z,5.03
2018-09-30T10:42:55.377Z,5.57
2018-09-30T10:45:24.143Z,5.00
2018-09-30T10:47:52.982Z,6.00
2018-09-30T10:50:21.821Z,5.60
2018-09-30T10:52:50.839Z,5.03
2018-09-30T10:55:19.719Z,4.90
2018-09-30T10:57:48.534Z,5.07
2018-09-30T11:00:17.372Z,5.07
2018-09-30T11:02:46.189Z,4.90
2018-09-30T11:05:15.041Z,5.13
2018-09-30T11:07:43.927Z,4.90
2018-09-30T11:10:12.841Z,5.10
2018-09-30T11:12:41.598Z,4.67
2018-09-30T11:15:10.423Z,5.47
2018-09-30T11:17:39.328Z,4.83
2018-09-30T11:20:08.289Z,5.13
2018-09-30T11:22:37.131Z,6.10
2018-09-30T11:25:05.841Z,5.20
2018-09-30T11:27:34.655Z,5.23
2018-09-30T11:30:03.596Z,4.10
2018-09-30T11:32:32.464Z,5.30
2018-09-30T11:35:01.351Z,4.40
2018-09-30T11:37:30.215Z,4.00
2018-09-30T11:39:59.044Z,4.90
2018-09-30T11:42:27.905Z,5.30
2018-09-30T11:44:56.743Z,4.93
2018-09-30T11:47:25.554Z,5.60
2018-09-30T11:49:54.379Z,4.67
2018-09-30T11:52:23.231Z,4.77
2018-09-30T11:54:52.096Z,4.63
2018-09-30T11:57:20.955Z,5.10
2018-09-30T11:59:49.775Z,4.53
2018-09-30T12:02:18.670Z,5.10
2018-09-30T12:04:47.436Z,4.90
2018-09-30T12:07:16.289Z,4.60
2018-09-30T12:09:45.116Z,4.73
2018-09-30T12:12:14.024Z,4.50
2018-09-30T12:14:42.948Z,4.20
2018-09-30T12:17:11.849Z,5.27
2018-09-30T12:19:40.630Z,4.30
2018-09-30T12:22:09.599Z,3.87
2018-09-30T12:24:38.432Z,4.27
2018-09-30T12:27:07.272Z,5.03
2018-09-30T12:29:36.100Z,4.00
2018-09-30T12:32:04.979Z,4.20
2018-09-30T12:34:33.806Z,4.73
2018-09-30T12:37:02.627Z,3.70
2018-09-30T12:39:31.430Z,3.53
2018-09-30T12:42:00.260Z,4.33
2018-09-30T12:44:29.079Z,4.80
2018-09-30T12:46:57.907Z,3.70
2018-09-30T12:49:26.755Z,4.30
2018-09-30T12:51:55.582Z,3.80
2018-09-30T12:54:24.480Z,4.13
2018-09-30T12:56:53.379Z,3.50
2018-09-30T12:59:22.206Z,3.27
2018-09-30T13:01:51.084Z,4.03
2018-09-30T13:04:19.944Z,4.03
2018-09-30T13:06:48.799Z,3.70
2018-09-30T13:09:17.594Z,3.77
2018-09-30T13:11:46.475Z,3.27
2018-09-30T13:14:15.407Z,3.30
2018-09-30T13:16:44.183Z,3.30
2018-09-30T13:19:13.024Z,3.80
2018-09-30T13:21:41.853Z,3.90
2018-09-30T13:24:10.670Z,2.97
2018-09-30T13:26:39.520Z,3.50
2018-09-30T13:29:08.366Z,3.63
2018-09-30T13:31:37.175Z,3.67
2018-09-30T13:34:06.080Z,4.00
2018-09-30T13:36:34.917Z,3.23
2018-09-30T13:39:04.751Z,3.13
2018-09-30T13:41:33.618Z,3.27
2018-09-30T13:44:02.423Z,3.03
2018-09-30T13:46:31.225Z,2.63
2018-09-30T13:49:00.069Z,2.77
2018-09-30T13:51:28.904Z,3.60
2018-09-30T13:53:57.828Z,3.17
2018-09-30T13:56:26.579Z,2.60
2018-09-30T13:58:55.404Z,2.90
2018-09-30T14:01:24.232Z,3.27
2018-09-30T14:03:53.061Z,3.10
2018-09-30T14:06:21.851Z,3.07
2018-09-30T14:08:50.730Z,2.50
2018-09-30T14:11:19.560Z,3.70
2018-09-30T14:13:49.244Z,3.70
2018-09-30T14:16:18.052Z,3.30
2018-09-30T14:18:46.883Z,3.70
2018-09-30T14:21:15.712Z,3.60
2018-09-30T14:23:44.592Z,4.03
2018-09-30T14:26:13.416Z,3.13
2018-09-30T14:28:42.296Z,3.93
2018-09-30T14:31:11.096Z,3.50
2018-09-30T14:33:39.949Z,2.80
2018-09-30T14:36:08.788Z,3.33
2018-09-30T14:38:37.592Z,2.90
2018-09-30T14:41:06.421Z,3.53
2018-09-30T14:43:35.237Z,3.43
2018-09-30T14:46:04.040Z,3.30
2018-09-30T14:48:32.897Z,3.10
2018-09-30T14:51:01.705Z,3.80
2018-09-30T14:53:30.527Z,3.50
2018-09-30T14:55:59.377Z,3.70
2018-09-30T14:58:28.229Z,3.90
2018-09-30T15:00:57.036Z,4.00
2018-09-30T15:03:25.864Z,3.80
2018-09-30T15:05:54.688Z,3.50
2018-09-30T15:08:23.511Z,3.87
2018-09-30T15:10:52.341Z,4.17
2018-09-30T15:13:21.136Z,3.50
2018-09-30T15:15:49.940Z,3.67
2018-09-30T15:18:18.770Z,3.73
2018-09-30T15:20:47.606Z,3.40
2018-09-30T15:23:16.409Z,3.83
2018-09-30T15:25:45.212Z,3.53
2018-09-30T15:28:14.062Z,3.73
2018-09-30T15:30:42.923Z,3.83
2018-09-30T15:33:11.735Z,2.90
2018-09-30T15:35:40.615Z,3.70
2018-09-30T15:38:09.508Z,3.30
2018-09-30T15:40:38.307Z,4.20
2018-09-30T15:43:07.288Z,4.17
2018-09-30T15:45:36.135Z,3.20
2018-09-30T15:48:05.050Z,3.27
2018-09-30T15:50:33.824Z,4.00
2018-09-30T15:53:02.682Z,2.87
2018-09-30T15:55:31.478Z,3.30
2018-09-30T15:58:00.425Z,3.60
2018-09-30T16:00:29.207Z,3.60
2018-09-30T16:02:58.018Z,3.53
2018-09-30T16:05:26.826Z,3.83
2018-09-30T16:07:55.713Z,3.50
2018-09-30T16:10:24.556Z,3.20
2018-09-30T16:12:53.466Z,3.07
2018-09-30T16:15:22.236Z,3.17
2018-09-30T16:17:51.107Z,2.80
2018-09-30T16:20:19.947Z,3.20
2018-09-30T16:22:48.763Z,3.50
2018-09-30T16:25:17.604Z,3.13
2018-09-30T16:27:46.411Z,2.90
2018-09-30T16:30:15.243Z,3.47
2018-09-30T16:32:44.096Z,3.60
2018-09-30T16:35:13.007Z,3.67
2018-09-30T16:37:41.774Z,4.50
2018-09-30T16:40:10.640Z,4.37
2018-09-30T16:42:39.533Z,5.43
2018-09-30T16:45:08.466Z,4.37
2018-09-30T16:47:37.288Z,4.97
2018-09-30T16:50:06.141Z,4.10
2018-09-30T16:52:34.976Z,3.93
2018-09-30T16:55:03.829Z,3.60
2018-09-30T16:57:32.740Z,3.77
2018-09-30T17:00:01.564Z,4.60
2018-09-30T17:02:30.451Z,4.93
2018-09-30T17:04:59.282Z,4.53
2018-09-30T17:07:28.105Z,4.53
2018-09-30T17:09:56.948Z,3.90
2018-09-30T17:12:25.867Z,4.57
2018-09-30T17:14:54.732Z,6.03
2018-09-30T17:17:23.796Z,5.80
2018-09-30T17:19:52.609Z,6.17
2018-09-30T17:22:21.419Z,4.90
2018-09-30T17:24:50.281Z,4.10
2018-09-30T17:27:19.073Z,3.80
2018-09-30T17:29:47.916Z,4.30
2018-09-30T17:32:16.727Z,3.80
2018-09-30T17:34:45.528Z,3.93
2018-09-30T17:37:14.331Z,4.30
2018-09-30T17:39:43.200Z,3.70
2018-09-30T17:42:12.020Z,4.30
2018-09-30T17:44:40.859Z,4.93
2018-09-30T17:47:09.649Z,4.70
2018-09-30T17:49:38.521Z,5.40
2018-09-30T17:52:07.304Z,4.00
2018-09-30T17:54:36.131Z,4.30
2018-09-30T17:57:04.920Z,4.07
2018-09-30T17:59:33.764Z,4.13
2018-09-30T18:02:02.595Z,4.30
2018-09-30T18:04:31.468Z,4.63
2018-09-30T18:07:00.278Z,4.37
2018-09-30T18:09:29.111Z,4.00
2018-09-30T18:11:57.911Z,4.00
2018-09-30T18:14:27.010Z,3.73
2018-09-30T18:16:55.860Z,3.70
2018-09-30T18:19:24.661Z,4.60
2018-09-30T18:21:53.479Z,4.30
2018-09-30T18:27:21.823Z,5.30
2018-09-30T18:29:50.640Z,5.30
2018-09-30T18:32:19.447Z,5.27
2018-09-30T18:34:48.332Z,4.50
2018-09-30T18:37:17.160Z,4.67
2018-09-30T18:39:46.011Z,4.43
2018-09-30T18:42:17.238Z,5.70
2018-09-30T18:44:46.669Z,6.07
2018-09-30T18:47:18.823Z,6.10
2018-09-30T18:49:48.270Z,6.47
2018-09-30T18:52:20.197Z,6.83
2018-09-30T18:54:49.656Z,7.00
2018-09-30T18:57:19.595Z,7.60
2018-09-30T18:59:49.090Z,7.13
2018-09-30T19:02:20.511Z,7.90
2018-09-30T19:04:50.102Z,7.87
2018-09-30T19:07:21.601Z,7.07
2018-09-30T19:09:51.828Z,7.17
2018-09-30T19:12:21.265Z,7.10
2018-09-30T19:14:50.649Z,7.17
2018-09-30T19:17:20.112Z,7.00
2018-09-30T19:19:51.950Z,7.80
2018-09-30T19:22:21.495Z,6.20
2018-09-30T19:24:50.866Z,6.10
2018-09-30T19:27:20.040Z,6.33
2018-09-30T19:29:49.967Z,6.70
2018-09-30T19:32:19.090Z,6.97
2018-09-30T19:34:51.184Z,6.37
2018-09-30T19:37:21.357Z,7.00
2018-09-30T19:39:52.108Z,7.70
2018-09-30T19:42:21.294Z,8.10
2018-09-30T19:44:50.092Z,7.97
2018-09-30T19:47:19.166Z,8.50
2018-09-30T19:49:48.234Z,7.20
2018-09-30T19:52:21.235Z,7.17
2018-09-30T19:54:51.846Z,6.23
2018-09-30T19:57:22.030Z,7.60
2018-09-30T19:59:52.233Z,6.47
2018-09-30T20:02:21.803Z,8.90
2018-09-30T20:04:51.963Z,9.00
2018-09-30T20:07:21.066Z,6.77
2018-09-30T20:09:51.673Z,7.30
2018-09-30T20:12:20.760Z,6.90
2018-09-30T20:14:50.428Z,8.20
2018-09-30T20:17:19.637Z,10.70
2018-09-30T20:19:48.721Z,7.40
2018-09-30T20:22:18.361Z,7.30
2018-09-30T20:24:49.245Z,8.10
2018-09-30T20:27:19.566Z,9.27
2018-09-30T20:29:48.343Z,7.60
2018-09-30T20:32:17.358Z,8.40
2018-09-30T20:34:46.403Z,8.63
2018-09-30T20:37:15.490Z,8.73
2018-09-30T20:39:44.582Z,9.47
2018-09-30T20:42:13.768Z,9.13
2018-09-30T20:44:42.862Z,9.03
2018-09-30T20:47:11.970Z,10.20
2018-09-30T20:49:41.169Z,12.00
2018-09-30T20:52:10.931Z,9.90
2018-09-30T20:54:40.146Z,9.43
2018-09-30T20:57:09.395Z,10.33
2018-09-30T20:59:38.583Z,9.17
2018-09-30T21:02:07.811Z,10.50
2018-09-30T21:04:37.087Z,8.97
2018-09-30T21:07:07.185Z,10.13
2018-09-30T21:09:36.222Z,9.57
2018-09-30T21:12:05.382Z,10.50
2018-09-30T21:14:34.556Z,8.97
2018-09-30T21:17:03.793Z,9.10
2018-09-30T21:19:33.725Z,9.73
2018-09-30T21:22:02.959Z,10.60
2018-09-30T21:24:32.905Z,10.50
2018-09-30T21:27:01.992Z,9.80
2018-09-30T21:29:31.104Z,9.40
2018-09-30T21:32:00.237Z,11.10
2018-09-30T21:34:29.292Z,9.80
2018-09-30T21:36:59.564Z,11.10
2018-09-30T21:39:28.777Z,10.53
2018-09-30T21:41:57.910Z,10.20
2018-09-30T21:44:29.188Z,10.47
2018-09-30T21:46:58.463Z,10.10
2018-09-30T21:49:28.479Z,10.10
2018-09-30T21:51:58.250Z,10.10
2018-09-30T21:54:27.456Z,10.53
2018-09-30T21:56:57.093Z,9.87
2018-09-30T21:59:27.412Z,8.70
2018-09-30T22:01:56.608Z,8.70
2018-09-30T22:04:25.948Z,9.47
2018-09-30T22:06:55.209Z,9.67
2018-09-30T22:09:25.092Z,10.20
2018-09-30T22:11:54.920Z,10.57
2018-09-30T22:14:24.717Z,9.90
2018-09-30T22:16:54.329Z,12.10
2018-09-30T22:19:23.880Z,10.97
2018-09-30T22:21:53.032Z,10.50
2018-09-30T22:24:22.090Z,10.33
2018-09-30T22:26:51.521Z,9.60
2018-09-30T22:29:20.568Z,9.00
2018-09-30T22:31:50.210Z,8.63
2018-09-30T22:34:19.284Z,7.77
2018-09-30T22:36:49.692Z,7.67
2018-09-30T22:39:20.713Z,7.73
2018-09-30T22:41:51.276Z,8.67
2018-09-30T22:44:20.465Z,9.40
2018-09-30T22:46:50.331Z,9.20
2018-09-30T22:49:20.122Z,8.57
2018-09-30T22:51:49.856Z,9.47
2018-09-30T22:54:19.062Z,9.20
2018-09-30T22:56:49.055Z,9.60
2018-09-30T22:59:18.346Z,9.20
2018-09-30T23:01:47.636Z,10.20
2018-09-30T23:04:17.645Z,10.50
2018-09-30T23:06:49.002Z,9.57
2018-09-30T23:09:18.501Z,8.80
2018-09-30T23:11:47.697Z,9.83
2018-09-30T23:14:16.798Z,8.57
2018-09-30T23:16:46.089Z,8.77
2018-09-30T23:19:15.176Z,8.10
2018-09-30T23:21:44.900Z,7.47
2018-09-30T23:24:14.029Z,8.17
2018-09-30T23:26:43.373Z,7.60
2018-09-30T23:29:12.975Z,8.17
2018-09-30T23:31:42.483Z,7.67
2018-09-30T23:34:11.662Z,7.60
2018-09-30T23:36:40.878Z,8.40
2018-09-30T23:39:13.588Z,8.90
2018-09-30T23:41:44.279Z,8.03
2018-09-30T23:44:13.393Z,8.20
2018-09-30T23:46:42.563Z,7.67
2018-09-30T23:49:11.716Z,8.10
2018-09-30T23:51:40.932Z,7.63
2018-09-30T23:54:09.991Z,7.43
2018-09-30T23:56:40.145Z,7.63
2018-09-30T23:59:09.416Z,6.80
